createdAt,value
2022-10-12T00:01:08.827Z,11.03
2022-10-12T00:03:37.284Z,12.77
2022-10-12T00:06:08.768Z,10.43
2022-10-12T00:08:39.495Z,7.50
2022-10-12T00:11:09.108Z,8.83
2022-10-12T00:13:37.345Z,8.33
2022-10-12T00:16:06.980Z,7.40
2022-10-12T00:18:35.562Z,7.93
2022-10-12T00:21:04.496Z,8.33
2022-10-12T00:23:33.660Z,8.37
2022-10-12T00:26:05.489Z,7.83
2022-10-12T00:28:34.430Z,6.50
2022-10-12T00:31:02.791Z,8.80
2022-10-12T00:33:31.431Z,8.00
2022-10-12T00:35:59.618Z,10.60
2022-10-12T00:38:27.718Z,5.87
2022-10-12T00:40:55.977Z,6.27
2022-10-12T00:43:31.532Z,8.43
2022-10-12T00:46:02.571Z,10.53
2022-10-12T00:48:31.266Z,5.40
2022-10-12T00:51:02.541Z,6.40
2022-10-12T00:53:36.812Z,6.10
2022-10-12T00:56:10.511Z,4.73
2022-10-12T00:58:40.186Z,8.37
2022-10-12T01:01:16.286Z,6.23
2022-10-12T01:03:45.820Z,6.83
2022-10-12T01:06:14.044Z,7.60
2022-10-12T01:08:43.110Z,6.43
2022-10-12T01:11:11.568Z,4.47
2022-10-12T01:13:41.066Z,7.00
2022-10-12T01:16:13.678Z,5.90
2022-10-12T01:18:46.727Z,4.23
2022-10-12T01:21:20.955Z,6.90
2022-10-12T01:24:24.297Z,6.23
2022-10-12T01:27:04.416Z,5.80
2022-10-12T01:30:02.731Z,5.90
2022-10-12T01:32:35.633Z,5.17
2022-10-12T01:35:08.463Z,7.00
2022-10-12T01:37:44.893Z,5.30
2022-10-12T01:40:17.276Z,6.43
2022-10-12T01:42:46.704Z,4.70
2022-10-12T01:45:18.363Z,5.17
2022-10-12T01:47:49.567Z,5.70
2022-10-12T01:50:18.780Z,5.17
2022-10-12T01:52:58.371Z,4.70
2022-10-12T01:55:39.235Z,5.20
2022-10-12T01:58:21.700Z,5.53
2022-10-12T02:01:00.754Z,9.30
2022-10-12T02:03:38.047Z,6.50
2022-10-12T02:06:10.688Z,9.50
2022-10-12T02:08:43.631Z,7.10
2022-10-12T02:11:14.007Z,7.30
2022-10-12T02:13:45.736Z,6.60
2022-10-12T02:16:18.792Z,9.90
2022-10-12T02:18:51.317Z,7.20
2022-10-12T02:21:23.068Z,6.60
2022-10-12T02:23:54.426Z,9.70
2022-10-12T02:26:23.638Z,9.00
2022-10-12T02:28:52.092Z,14.50
2022-10-12T02:31:29.608Z,8.73
2022-10-12T02:34:02.836Z,9.77
2022-10-12T02:36:38.813Z,13.33
2022-10-12T02:39:12.373Z,9.40
2022-10-12T02:41:45.138Z,7.40
2022-10-12T02:44:16.430Z,9.07
2022-10-12T02:46:48.322Z,7.07
2022-10-12T02:49:18.528Z,12.33
2022-10-12T02:51:47.247Z,6.30
2022-10-12T02:54:16.123Z,7.70
2022-10-12T02:56:45.832Z,7.83
2022-10-12T02:59:15.454Z,8.23
2022-10-12T03:01:45.883Z,8.27
2022-10-12T03:04:14.609Z,6.30
2022-10-12T03:06:43.591Z,8.93
2022-10-12T03:09:12.244Z,10.97
2022-10-12T03:11:43.884Z,8.40
2022-10-12T03:14:13.152Z,7.10
2022-10-12T03:16:41.782Z,7.33
2022-10-12T03:19:11.752Z,6.60
2022-10-12T03:21:40.481Z,7.20
2022-10-12T03:24:09.113Z,7.93
2022-10-12T03:26:37.825Z,5.60
2022-10-12T03:29:06.609Z,8.47
2022-10-12T03:31:35.235Z,7.13
2022-10-12T03:34:04.030Z,5.60
2022-10-12T03:36:34.103Z,10.10
2022-10-12T03:39:02.562Z,8.57
2022-10-12T03:41:31.149Z,7.33
2022-10-12T03:43:59.850Z,10.60
2022-10-12T03:46:28.500Z,8.83
2022-10-12T03:48:57.106Z,7.90
2022-10-12T03:51:28.443Z,5.10
2022-10-12T03:53:58.834Z,9.07
2022-10-12T03:56:27.708Z,11.00
2022-10-12T03:58:56.359Z,10.93
2022-10-12T04:01:25.856Z,9.93
2022-10-12T04:03:55.147Z,9.17
2022-10-12T04:06:26.141Z,10.13
2022-10-12T04:08:55.562Z,8.53
2022-10-12T04:11:26.076Z,8.30
2022-10-12T04:13:55.746Z,8.53
2022-10-12T04:16:27.378Z,7.73
2022-10-12T04:19:09.183Z,12.17
2022-10-12T04:21:38.958Z,12.33
2022-10-12T04:24:09.274Z,9.53
2022-10-12T04:26:40.102Z,6.90
2022-10-12T04:29:09.402Z,7.93
2022-10-12T04:31:39.084Z,7.57
2022-10-12T04:34:15.677Z,8.00
2022-10-12T04:36:44.910Z,7.90
2022-10-12T04:39:13.944Z,9.77
2022-10-12T04:41:45.179Z,5.60
2022-10-12T04:44:14.722Z,8.07
2022-10-12T04:46:43.606Z,8.93
2022-10-12T04:49:12.479Z,7.10
2022-10-12T04:51:43.050Z,5.77
2022-10-12T04:54:12.457Z,10.63
2022-10-12T04:56:48.328Z,8.13
2022-10-12T04:59:19.918Z,7.47
2022-10-12T05:01:49.808Z,10.23
2022-10-12T05:04:20.741Z,12.57
2022-10-12T05:06:50.026Z,52.83
2022-10-12T05:09:19.229Z,41.13
2022-10-12T05:11:51.598Z,29.23
2022-10-12T05:14:21.454Z,17.80
2022-10-12T05:16:50.462Z,11.70
2022-10-12T05:19:19.784Z,10.27
2022-10-12T05:21:56.549Z,12.20
2022-10-12T05:24:28.263Z,9.70
2022-10-12T05:27:03.446Z,5.77
2022-10-12T05:29:33.670Z,5.37
2022-10-12T05:32:04.047Z,12.73
2022-10-12T05:34:33.578Z,8.43
2022-10-12T05:37:10.340Z,9.60
2022-10-12T05:39:40.146Z,6.97
2022-10-12T05:42:14.892Z,5.10
2022-10-12T05:44:50.153Z,7.47
2022-10-12T05:47:21.989Z,6.00
2022-10-12T05:49:51.921Z,13.93
2022-10-12T05:52:21.289Z,12.53
2022-10-12T05:54:50.665Z,8.33
2022-10-12T05:57:21.031Z,10.27
2022-10-12T05:59:49.882Z,9.93
2022-10-12T06:02:19.680Z,10.00
2022-10-12T06:04:48.816Z,8.00
2022-10-12T06:07:17.919Z,11.83
2022-10-12T06:09:47.661Z,11.90
2022-10-12T06:12:17.201Z,10.27
2022-10-12T06:14:56.796Z,7.37
2022-10-12T06:17:25.574Z,11.10
2022-10-12T06:19:54.171Z,15.73
2022-10-12T06:22:22.816Z,12.50
2022-10-12T06:24:51.588Z,14.23
2022-10-12T06:27:20.506Z,8.90
2022-10-12T06:29:49.007Z,8.43
2022-10-12T06:32:18.882Z,9.80
2022-10-12T06:34:47.406Z,6.60
2022-10-12T06:37:44.512Z,8.17
2022-10-12T06:40:05.835Z,8.23
2022-10-12T06:42:34.351Z,9.43
2022-10-12T06:45:02.879Z,8.50
2022-10-12T06:47:33.129Z,7.73
2022-10-12T06:50:01.792Z,13.03
2022-10-12T06:52:30.430Z,7.83
2022-10-12T06:54:58.967Z,11.30
2022-10-12T06:57:27.704Z,9.20
2022-10-12T06:59:56.245Z,8.43
2022-10-12T07:02:24.663Z,33.70
2022-10-12T07:04:54.866Z,37.83
2022-10-12T07:07:23.394Z,18.60
2022-10-12T07:09:53.231Z,13.53
2022-10-12T07:12:22.344Z,10.67
2022-10-12T07:14:50.981Z,9.30
2022-10-12T07:17:19.455Z,5.80
2022-10-12T07:19:48.199Z,8.30
2022-10-12T07:22:18.472Z,7.00
2022-10-12T07:24:46.716Z,6.73
2022-10-12T07:27:14.990Z,10.10
2022-10-12T07:29:43.322Z,8.27
2022-10-12T07:32:11.708Z,8.67
2022-10-12T07:34:39.844Z,5.83
2022-10-12T07:37:08.017Z,9.20
2022-10-12T07:39:38.074Z,6.47
2022-10-12T07:42:06.583Z,6.67
2022-10-12T07:44:35.069Z,12.50
2022-10-12T07:47:03.412Z,12.33
2022-10-12T07:49:31.605Z,9.20
2022-10-12T07:51:59.810Z,8.50
2022-10-12T07:54:30.010Z,9.07
2022-10-12T07:57:01.372Z,7.37
2022-10-12T07:59:29.872Z,4.70
2022-10-12T08:01:58.074Z,5.33
2022-10-12T08:04:26.487Z,6.20
2022-10-12T08:06:55.368Z,4.83
2022-10-12T08:09:23.561Z,7.90
2022-10-12T08:11:51.732Z,6.93
2022-10-12T08:14:21.326Z,6.10
2022-10-12T08:16:49.772Z,5.97
2022-10-12T08:19:17.940Z,9.30
2022-10-12T08:21:46.312Z,84.73
2022-10-12T08:24:14.707Z,76.27
2022-10-12T08:26:43.242Z,45.27
2022-10-12T08:29:12.077Z,23.80
2022-10-12T08:31:42.446Z,18.27
2022-10-12T08:34:10.847Z,12.10
2022-10-12T08:36:39.040Z,11.07
2022-10-12T08:39:08.656Z,6.27
2022-10-12T08:41:48.972Z,9.53
2022-10-12T08:44:41.954Z,7.07
2022-10-12T08:47:16.360Z,5.70
2022-10-12T08:49:49.833Z,5.47
2022-10-12T08:52:29.780Z,6.80
2022-10-12T08:55:02.108Z,7.00
2022-10-12T08:57:30.348Z,9.50
2022-10-12T09:00:01.575Z,12.73
2022-10-12T09:02:47.142Z,7.17
2022-10-12T09:05:20.279Z,6.30
2022-10-12T09:07:55.641Z,6.53
2022-10-12T09:10:34.262Z,6.37
2022-10-12T09:13:11.690Z,5.67
2022-10-12T09:15:46.800Z,6.10
2022-10-12T09:18:20.687Z,4.73
2022-10-12T09:20:50.664Z,4.50
2022-10-12T09:23:31.547Z,7.20
2022-10-12T09:26:08.543Z,3.53
2022-10-12T09:28:40.452Z,7.90
2022-10-12T09:31:25.861Z,6.33
2022-10-12T09:33:57.352Z,5.97
2022-10-12T09:36:29.257Z,7.00
2022-10-12T09:38:59.863Z,9.83
2022-10-12T09:41:32.352Z,9.10
2022-10-12T09:44:03.372Z,6.30
2022-10-12T09:46:39.989Z,8.77
2022-10-12T09:49:09.740Z,8.50
2022-10-12T09:51:38.235Z,7.97
2022-10-12T09:54:07.185Z,6.10
2022-10-12T09:56:42.153Z,5.83
2022-10-12T09:59:27.228Z,9.53
2022-10-12T10:02:00.242Z,8.20
2022-10-12T10:04:31.104Z,5.30
2022-10-12T10:07:19.500Z,6.93
2022-10-12T10:09:48.410Z,6.17
2022-10-12T10:12:24.168Z,8.70
2022-10-12T10:14:53.320Z,7.10
2022-10-12T10:17:26.954Z,7.60
2022-10-12T10:19:57.899Z,5.67
2022-10-12T10:22:27.022Z,8.60
2022-10-12T10:25:00.542Z,7.43
2022-10-12T10:27:37.086Z,9.13
2022-10-12T10:30:32.397Z,10.07
2022-10-12T10:33:24.104Z,8.43
2022-10-12T10:36:00.468Z,9.60
2022-10-12T10:38:31.376Z,5.97
2022-10-12T10:41:07.898Z,11.10
2022-10-12T10:43:36.715Z,7.97
2022-10-12T10:46:06.217Z,6.93
2022-10-12T10:48:43.366Z,9.37
2022-10-12T10:51:12.969Z,7.70
2022-10-12T10:53:45.730Z,5.93
2022-10-12T10:56:18.505Z,6.00
2022-10-12T10:58:50.125Z,8.93
2022-10-12T11:01:23.795Z,9.23
2022-10-12T11:03:57.597Z,5.70
2022-10-12T11:06:37.245Z,7.40
2022-10-12T11:09:08.612Z,9.23
2022-10-12T11:11:39.184Z,9.50
2022-10-12T11:14:15.256Z,6.90
2022-10-12T11:16:48.245Z,6.50
2022-10-12T11:19:27.598Z,7.50
2022-10-12T11:22:00.618Z,4.80
2022-10-12T11:24:35.540Z,10.53
2022-10-12T11:27:08.867Z,6.40
2022-10-12T11:29:38.782Z,4.20
2022-10-12T11:32:16.018Z,6.57
2022-10-12T11:34:50.778Z,3.73
2022-10-12T11:37:24.015Z,5.10
2022-10-12T11:39:55.312Z,7.97
2022-10-12T11:42:32.255Z,63.67
2022-10-12T11:45:02.811Z,62.03
2022-10-12T11:47:37.146Z,52.07
2022-10-12T11:50:08.505Z,40.90
2022-10-12T11:52:44.687Z,30.43
2022-10-12T11:55:54.088Z,26.70
2022-10-12T11:58:42.123Z,19.00
2022-10-12T12:01:37.495Z,13.80
2022-10-12T12:04:42.612Z,14.87
2022-10-12T12:07:47.446Z,9.93
2022-10-12T12:10:49.897Z,7.57
2022-10-12T12:13:22.988Z,8.50
2022-10-12T12:16:36.674Z,6.80
2022-10-12T12:19:33.337Z,6.83
2022-10-12T12:22:23.431Z,3.30
2022-10-12T12:25:34.472Z,5.63
2022-10-12T12:28:18.988Z,3.63
2022-10-12T12:30:57.949Z,3.33
2022-10-12T12:33:31.695Z,4.57
2022-10-12T12:36:03.736Z,4.83
2022-10-12T12:38:34.635Z,3.20
2022-10-12T12:41:15.957Z,7.50
2022-10-12T12:44:02.630Z,2.60
2022-10-12T12:47:32.654Z,3.93
2022-10-12T12:50:00.318Z,4.83
2022-10-12T12:52:30.616Z,7.53
2022-10-12T12:55:30.551Z,5.17
2022-10-12T12:58:16.489Z,5.20
2022-10-12T13:00:57.720Z,6.73
2022-10-12T13:03:54.938Z,3.97
2022-10-12T13:06:59.027Z,2.50
2022-10-12T13:09:50.540Z,3.20
2022-10-12T13:12:42.064Z,3.60
2022-10-12T13:15:29.959Z,5.07
2022-10-12T13:18:45.668Z,5.63
2022-10-12T13:21:17.523Z,4.40
2022-10-12T13:23:47.816Z,4.27
2022-10-12T13:26:21.843Z,5.37
2022-10-12T13:28:51.538Z,7.17
2022-10-12T13:31:24.878Z,3.47
2022-10-12T13:34:00.599Z,3.90
2022-10-12T13:36:31.023Z,11.90
2022-10-12T13:39:08.190Z,6.70
2022-10-12T13:41:36.874Z,8.73
2022-10-12T13:44:06.647Z,5.77
2022-10-12T13:46:42.731Z,10.30
2022-10-12T13:49:15.903Z,5.40
2022-10-12T13:51:45.655Z,6.40
2022-10-12T13:54:23.713Z,5.70
2022-10-12T13:56:58.499Z,5.13
2022-10-12T13:59:29.649Z,3.53
2022-10-12T14:02:01.695Z,4.20
2022-10-12T14:04:32.383Z,4.00
2022-10-12T14:07:04.210Z,4.73
2022-10-12T14:09:42.927Z,3.80
2022-10-12T14:12:12.435Z,5.03
2022-10-12T14:14:43.611Z,5.43
2022-10-12T14:17:17.195Z,10.23
2022-10-12T14:19:47.791Z,2.60
2022-10-12T14:22:22.743Z,5.10
2022-10-12T14:24:53.051Z,2.80
2022-10-12T14:27:26.577Z,5.73
2022-10-12T14:29:58.894Z,18.33
2022-10-12T14:32:49.651Z,16.20
2022-10-12T14:35:24.447Z,17.83
2022-10-12T14:37:54.826Z,15.90
2022-10-12T14:40:33.541Z,11.20
2022-10-12T14:43:08.143Z,6.87
2022-10-12T14:45:37.072Z,10.63
2022-10-12T14:48:14.744Z,5.77
2022-10-12T14:50:44.656Z,6.13
2022-10-12T14:53:14.763Z,5.73
2022-10-12T14:55:44.145Z,7.30
2022-10-12T14:58:16.476Z,5.47
2022-10-12T15:00:45.298Z,5.63
2022-10-12T15:03:14.929Z,5.90
2022-10-12T15:05:43.220Z,4.17
2022-10-12T15:08:11.397Z,8.70
2022-10-12T15:10:39.683Z,5.13
2022-10-12T15:13:07.940Z,5.33
2022-10-12T15:15:42.227Z,5.20
2022-10-12T15:18:10.752Z,6.40
2022-10-12T15:20:43.223Z,4.50
2022-10-12T15:23:14.400Z,11.17
2022-10-12T15:25:48.495Z,32.47
2022-10-12T15:28:16.942Z,25.67
2022-10-12T15:31:11.726Z,22.30
2022-10-12T15:33:34.569Z,18.80
2022-10-12T15:36:04.157Z,16.83
2022-10-12T15:38:32.329Z,12.30
2022-10-12T15:41:00.603Z,11.17
2022-10-12T15:43:29.685Z,11.67
2022-10-12T15:46:00.271Z,10.03
2022-10-12T15:48:29.052Z,6.43
2022-10-12T15:50:57.491Z,5.63
2022-10-12T15:53:28.382Z,6.13
2022-10-12T15:55:57.241Z,4.60
2022-10-12T15:58:25.731Z,5.70
2022-10-12T16:00:54.446Z,5.50
2022-10-12T16:03:26.183Z,3.33
2022-10-12T16:05:55.428Z,5.07
2022-10-12T16:08:23.876Z,4.70
2022-10-12T16:10:53.689Z,4.53
2022-10-12T16:13:21.878Z,4.33
2022-10-12T16:15:50.027Z,4.03
2022-10-12T16:18:18.279Z,6.33
2022-10-12T16:20:51.117Z,4.37
2022-10-12T16:23:24.685Z,7.10
2022-10-12T16:25:55.148Z,5.87
2022-10-12T16:28:24.327Z,5.83
2022-10-12T16:30:53.182Z,3.20
2022-10-12T16:33:21.311Z,3.70
2022-10-12T16:35:49.575Z,8.80
2022-10-12T16:38:19.930Z,5.90
2022-10-12T16:40:49.928Z,5.83
2022-10-12T16:43:19.587Z,6.00
2022-10-12T16:45:56.752Z,3.93
2022-10-12T16:48:24.899Z,6.30
2022-10-12T16:50:53.080Z,7.67
2022-10-12T16:53:21.219Z,5.30
2022-10-12T16:55:49.819Z,9.50
2022-10-12T16:58:19.712Z,4.83
2022-10-12T17:00:48.241Z,4.33
2022-10-12T17:03:16.516Z,5.90
2022-10-12T17:05:44.775Z,6.00
2022-10-12T17:08:15.487Z,8.10
2022-10-12T17:10:45.618Z,6.17
2022-10-12T17:13:14.431Z,12.80
2022-10-12T17:15:44.319Z,24.73
2022-10-12T17:18:12.573Z,26.13
2022-10-12T17:20:40.720Z,13.60
2022-10-12T17:23:08.999Z,15.70
2022-10-12T17:25:37.267Z,13.27
2022-10-12T17:28:05.875Z,9.43
2022-10-12T17:30:38.310Z,6.97
2022-10-12T17:33:07.971Z,7.33
2022-10-12T17:35:41.474Z,6.83
2022-10-12T17:38:09.842Z,6.60
2022-10-12T17:40:40.272Z,5.63
2022-10-12T17:43:08.436Z,6.07
2022-10-12T17:45:39.881Z,8.80
2022-10-12T17:48:09.486Z,10.83
2022-10-12T17:50:39.305Z,5.03
2022-10-12T17:53:09.038Z,5.50
2022-10-12T17:55:48.024Z,6.93
2022-10-12T17:58:17.025Z,5.20
2022-10-12T18:00:45.213Z,7.90
2022-10-12T18:03:14.827Z,7.50
2022-10-12T18:05:42.953Z,7.47
2022-10-12T18:08:11.233Z,8.93
2022-10-12T18:10:41.220Z,9.10
2022-10-12T18:13:09.803Z,11.97
2022-10-12T18:15:43.709Z,7.63
2022-10-12T18:18:15.258Z,8.13
2022-10-12T18:20:45.116Z,11.83
2022-10-12T18:23:13.336Z,11.60
2022-10-12T18:25:42.416Z,10.13
2022-10-12T18:28:12.427Z,11.33
2022-10-12T18:30:47.753Z,8.20
2022-10-12T18:33:16.658Z,8.80
2022-10-12T18:35:46.227Z,6.17
2022-10-12T18:38:14.497Z,8.73
2022-10-12T18:40:43.096Z,14.10
2022-10-12T18:43:11.668Z,13.23
2022-10-12T18:45:42.750Z,8.80
2022-10-12T18:48:11.254Z,13.30
2022-10-12T18:50:40.425Z,10.13
2022-10-12T18:53:09.980Z,11.37
2022-10-12T18:55:38.902Z,13.20
2022-10-12T18:58:07.606Z,13.73
2022-10-12T19:00:35.858Z,11.77
2022-10-12T19:03:04.045Z,15.80
2022-10-12T19:05:32.324Z,10.73
2022-10-12T19:08:00.530Z,13.83
2022-10-12T19:10:30.036Z,10.13
2022-10-12T19:12:59.117Z,14.60
2022-10-12T19:15:28.647Z,12.23
2022-10-12T19:17:56.909Z,12.57
2022-10-12T19:20:25.151Z,13.90
2022-10-12T19:22:53.350Z,15.10
2022-10-12T19:25:21.733Z,13.97
2022-10-12T19:27:51.263Z,12.90
2022-10-12T19:30:19.486Z,16.63
2022-10-12T19:32:48.724Z,12.93
2022-10-12T19:35:21.307Z,11.07
2022-10-12T19:37:50.027Z,14.00
2022-10-12T19:40:18.175Z,11.20
2022-10-12T19:42:49.442Z,9.00
2022-10-12T19:45:19.661Z,10.57
2022-10-12T19:47:50.185Z,8.27
2022-10-12T19:50:19.036Z,8.80
2022-10-12T19:52:48.029Z,7.93
2022-10-12T19:55:18.810Z,8.80
2022-10-12T19:57:51.008Z,11.40
2022-10-12T20:00:21.621Z,9.83
2022-10-12T20:02:50.551Z,11.20
2022-10-12T20:05:21.339Z,9.00
2022-10-12T20:07:49.521Z,10.13
2022-10-12T20:10:17.956Z,9.73
2022-10-12T20:12:46.128Z,11.83
2022-10-12T20:15:14.533Z,14.07
2022-10-12T20:17:44.194Z,11.27
2022-10-12T20:20:12.617Z,9.80
2022-10-12T20:22:40.806Z,10.63
2022-10-12T20:25:09.906Z,9.40
2022-10-12T20:27:38.737Z,10.13
2022-10-12T20:30:08.109Z,10.10
2022-10-12T20:32:37.183Z,10.13
2022-10-12T20:35:07.739Z,10.97
2022-10-12T20:37:36.364Z,14.70
2022-10-12T20:40:05.178Z,11.93
2022-10-12T20:42:33.431Z,13.20
2022-10-12T20:45:01.583Z,11.40
2022-10-12T20:47:29.752Z,8.47
2022-10-12T20:49:57.916Z,14.23
2022-10-12T20:52:27.462Z,13.43
2022-10-12T20:54:55.629Z,9.50
2022-10-12T20:57:23.783Z,16.73
2022-10-12T20:59:52.018Z,10.13
2022-10-12T21:02:20.675Z,9.67
2022-10-12T21:04:51.136Z,8.67
2022-10-12T21:07:20.549Z,12.53
2022-10-12T21:09:52.338Z,12.03
2022-10-12T21:12:20.859Z,13.97
2022-10-12T21:14:49.386Z,8.57
2022-10-12T21:17:17.729Z,11.27
2022-10-12T21:19:45.992Z,9.50
2022-10-12T21:22:14.396Z,10.87
2022-10-12T21:24:42.654Z,8.70
2022-10-12T21:27:12.660Z,9.30
2022-10-12T21:29:41.073Z,9.10
2022-10-12T21:32:09.339Z,8.43
2022-10-12T21:34:37.585Z,8.23
2022-10-12T21:37:05.792Z,8.43
2022-10-12T21:39:33.862Z,11.27
2022-10-12T21:42:02.115Z,8.17
2022-10-12T21:44:32.032Z,10.07
2022-10-12T21:47:00.374Z,9.83
2022-10-12T21:49:28.629Z,9.50
2022-10-12T21:51:56.772Z,7.43
2022-10-12T21:54:24.923Z,8.93
2022-10-12T21:56:53.061Z,11.87
2022-10-12T21:59:21.168Z,12.00
2022-10-12T22:01:50.661Z,14.13
2022-10-12T22:04:18.819Z,11.00
2022-10-12T22:06:47.176Z,10.43
2022-10-12T22:09:19.116Z,8.40
2022-10-12T22:11:47.897Z,7.57
2022-10-12T22:14:18.161Z,6.53
2022-10-12T22:16:47.156Z,7.90
2022-10-12T22:19:19.481Z,10.00
2022-10-12T22:21:48.888Z,7.57
2022-10-12T22:24:17.485Z,9.30
2022-10-12T22:26:46.004Z,7.10
2022-10-12T22:29:14.609Z,12.47
2022-10-12T22:31:44.377Z,12.40
2022-10-12T22:34:14.481Z,11.00
2022-10-12T22:36:44.437Z,12.20
2022-10-12T22:39:13.959Z,11.20
2022-10-12T22:41:45.694Z,11.30
2022-10-12T22:44:14.018Z,11.63
2022-10-12T22:46:42.231Z,11.10
2022-10-12T22:49:10.467Z,11.70
2022-10-12T22:51:40.052Z,12.40
2022-10-12T22:54:11.064Z,13.20
2022-10-12T22:56:42.911Z,15.23
2022-10-12T22:59:14.369Z,10.27
2022-10-12T23:01:42.680Z,10.03
2022-10-12T23:04:11.242Z,11.03
2022-10-12T23:06:39.610Z,12.60
2022-10-12T23:09:09.157Z,15.40
2022-10-12T23:11:37.430Z,15.17
2022-10-12T23:14:05.919Z,14.80
2022-10-12T23:16:34.457Z,10.60
2022-10-12T23:19:05.647Z,14.93
2022-10-12T23:21:35.440Z,15.20
2022-10-12T23:24:05.829Z,15.80
2022-10-12T23:26:35.818Z,12.57
2022-10-12T23:29:04.720Z,11.97
2022-10-12T23:31:35.594Z,13.10
2022-10-12T23:34:06.804Z,10.20
2022-10-12T23:36:35.535Z,12.23
2022-10-12T23:39:06.060Z,10.00
2022-10-12T23:41:35.723Z,10.53
2022-10-12T23:44:04.129Z,10.27
2022-10-12T23:46:32.509Z,8.47
2022-10-12T23:49:00.700Z,13.30
2022-10-12T23:51:28.931Z,10.77
2022-10-12T23:53:57.093Z,11.33
2022-10-12T23:56:25.529Z,7.13
2022-10-12T23:58:55.244Z,14.70
